createdAt,value
2017-06-26T00:00:48.800Z,0
2017-06-26T00:01:48.774Z,0
2017-06-26T00:02:48.759Z,0
2017-06-26T00:03:48.746Z,0
2017-06-26T00:04:48.733Z,0
2017-06-26T00:05:48.723Z,0
2017-06-26T00:06:48.708Z,0
2017-06-26T00:07:48.693Z,0
2017-06-26T00:08:48.683Z,0
2017-06-26T00:09:48.370Z,0
2017-06-26T00:10:48.356Z,0
2017-06-26T00:11:48.643Z,0
2017-06-26T00:12:48.631Z,0
2017-06-26T00:13:48.625Z,0
2017-06-26T00:14:48.609Z,0
2017-06-26T00:15:48.595Z,0
2017-06-26T00:16:48.585Z,0
2017-06-26T00:17:48.567Z,0
2017-06-26T00:18:48.556Z,0
2017-06-26T00:19:48.548Z,0
2017-06-26T00:20:48.536Z,0
2017-06-26T00:21:48.222Z,0
2017-06-26T00:22:48.507Z,0
2017-06-26T00:23:48.496Z,0
2017-06-26T00:24:48.485Z,0
2017-06-26T00:25:48.473Z,0
2017-06-26T00:26:48.461Z,0
2017-06-26T00:27:48.149Z,0
2017-06-26T00:28:48.438Z,0
2017-06-26T00:29:48.429Z,0
2017-06-26T00:30:48.415Z,0
2017-06-26T00:31:48.396Z,0
2017-06-26T00:32:48.383Z,0
2017-06-26T00:33:48.374Z,0
2017-06-26T00:34:48.374Z,0
2017-06-26T00:35:48.360Z,0
2017-06-26T00:36:48.335Z,0
2017-06-26T00:37:48.325Z,0
2017-06-26T00:38:48.308Z,0
2017-06-26T00:39:48.301Z,0
2017-06-26T00:40:48.294Z,0
2017-06-26T00:41:48.277Z,0
2017-06-26T00:42:48.262Z,0
2017-06-26T00:43:47.952Z,0
2017-06-26T00:44:48.236Z,0
2017-06-26T00:45:47.929Z,0
2017-06-26T00:46:48.221Z,0
2017-06-26T00:47:48.205Z,0
2017-06-26T00:48:48.189Z,0
2017-06-26T00:49:48.180Z,0
2017-06-26T00:50:48.189Z,0
2017-06-26T00:51:48.158Z,0
2017-06-26T00:52:48.139Z,0
2017-06-26T00:53:47.828Z,0
2017-06-26T00:54:48.123Z,0
2017-06-26T00:55:48.107Z,0
2017-06-26T00:56:48.094Z,0
2017-06-26T00:57:48.079Z,0
2017-06-26T00:58:48.066Z,0
2017-06-26T00:59:48.051Z,0
2017-06-26T01:00:47.737Z,0
2017-06-26T01:01:48.030Z,0
2017-06-26T01:02:48.025Z,0
2017-06-26T01:03:48.009Z,0
2017-06-26T01:04:47.992Z,0
2017-06-26T01:05:47.678Z,0
2017-06-26T01:06:47.967Z,0
2017-06-26T01:07:47.954Z,0
2017-06-26T01:08:47.944Z,0
2017-06-26T01:09:47.932Z,0
2017-06-26T01:10:47.619Z,0
2017-06-26T01:11:47.907Z,0
2017-06-26T01:12:47.898Z,0
2017-06-26T01:13:47.880Z,0
2017-06-26T01:14:47.875Z,0
2017-06-26T01:15:47.858Z,0
2017-06-26T01:16:47.850Z,0
2017-06-26T01:17:47.830Z,0
2017-06-26T01:18:47.823Z,0
2017-06-26T01:19:47.805Z,0
2017-06-26T01:20:47.797Z,0
2017-06-26T01:21:47.783Z,0
2017-06-26T01:22:47.771Z,0
2017-06-26T01:23:47.763Z,0
2017-06-26T01:24:47.749Z,0
2017-06-26T01:25:47.161Z,0
2017-06-26T01:26:47.726Z,0
2017-06-26T01:27:47.715Z,0
2017-06-26T01:28:47.694Z,0
2017-06-26T01:29:47.683Z,0
2017-06-26T01:30:47.666Z,0
2017-06-26T01:31:47.666Z,0
2017-06-26T01:32:47.650Z,0
2017-06-26T01:33:47.336Z,0
2017-06-26T01:34:47.629Z,0
2017-06-26T01:35:47.311Z,0
2017-06-26T01:36:47.602Z,0
2017-06-26T01:37:47.583Z,0
2017-06-26T01:38:47.574Z,0
2017-06-26T01:39:47.255Z,0
2017-06-26T01:40:47.550Z,0
2017-06-26T01:41:47.534Z,0
2017-06-26T01:42:47.519Z,0
2017-06-26T01:43:47.512Z,0
2017-06-26T01:44:47.498Z,0
2017-06-26T01:45:47.486Z,0
2017-06-26T01:46:47.475Z,0
2017-06-26T01:47:47.457Z,0
2017-06-26T01:48:47.443Z,0
2017-06-26T01:49:47.433Z,0
2017-06-26T01:50:47.421Z,0
2017-06-26T01:51:47.109Z,0
2017-06-26T01:52:47.402Z,0
2017-06-26T01:53:47.395Z,0
2017-06-26T01:54:47.399Z,0
2017-06-26T01:55:47.362Z,0
2017-06-26T01:56:47.343Z,0
2017-06-26T01:57:47.328Z,0
2017-06-26T01:58:47.323Z,0
2017-06-26T01:59:47.312Z,0
2017-06-26T02:00:47.316Z,0
2017-06-26T02:01:47.285Z,0
2017-06-26T02:02:47.270Z,0
2017-06-26T02:03:47.259Z,0
2017-06-26T02:04:47.147Z,0
2017-06-26T02:05:47.232Z,0
2017-06-26T02:06:46.922Z,0
2017-06-26T02:07:46.906Z,0
2017-06-26T02:08:47.400Z,0
2017-06-26T02:09:47.182Z,0
2017-06-26T02:10:47.178Z,0
2017-06-26T02:11:47.159Z,0
2017-06-26T02:12:47.150Z,0
2017-06-26T02:13:47.132Z,0
2017-06-26T02:14:47.122Z,0
2017-06-26T02:15:47.114Z,0
2017-06-26T02:16:46.797Z,0
2017-06-26T02:17:47.087Z,0
2017-06-26T02:18:47.074Z,0
2017-06-26T02:19:47.062Z,0
2017-06-26T02:20:47.054Z,0
2017-06-26T02:21:47.040Z,0
2017-06-26T02:22:47.024Z,0
2017-06-26T02:23:47.006Z,0
2017-06-26T02:24:47.006Z,0
2017-06-26T02:25:46.988Z,0
2017-06-26T02:26:46.973Z,0
2017-06-26T02:27:46.961Z,0
2017-06-26T02:28:46.951Z,0
2017-06-26T02:29:46.937Z,0
2017-06-26T02:30:46.926Z,0
2017-06-26T02:31:46.916Z,0
2017-06-26T02:32:46.902Z,0
2017-06-26T02:33:46.886Z,0
2017-06-26T02:34:47.079Z,0
2017-06-26T02:35:46.863Z,0
2017-06-26T02:36:46.854Z,4
2017-06-26T02:37:46.839Z,4
2017-06-26T02:38:46.827Z,0
2017-06-26T02:40:01.430Z,0
2017-06-26T02:40:47.016Z,0
2017-06-26T02:41:46.789Z,4
2017-06-26T02:42:46.479Z,4
2017-06-26T02:43:46.792Z,8
2017-06-26T02:44:46.754Z,8
2017-06-26T02:45:46.746Z,8
2017-06-26T02:46:46.730Z,8
2017-06-26T02:47:46.716Z,8
2017-06-26T02:48:46.704Z,12
2017-06-26T02:49:46.693Z,8
2017-06-26T02:50:46.376Z,12
2017-06-26T02:51:46.366Z,16
2017-06-26T02:52:46.352Z,16
2017-06-26T02:53:46.638Z,20
2017-06-26T02:54:46.632Z,24
2017-06-26T02:55:46.623Z,28
2017-06-26T02:56:46.629Z,32
2017-06-26T02:57:46.602Z,36
2017-06-26T02:58:46.578Z,40
2017-06-26T02:59:46.569Z,44
2017-06-26T03:00:46.558Z,52
2017-06-26T03:01:46.543Z,64
2017-06-26T03:02:46.535Z,72
2017-06-26T03:03:46.522Z,84
2017-06-26T03:04:46.509Z,104
2017-06-26T03:05:46.495Z,116
2017-06-26T03:06:46.482Z,132
2017-06-26T03:07:46.170Z,152
2017-06-26T03:08:46.459Z,168
2017-06-26T03:09:46.449Z,188
2017-06-26T03:10:46.638Z,220
2017-06-26T03:11:59.764Z,220
2017-06-26T03:12:46.407Z,252
2017-06-26T03:13:46.398Z,284
2017-06-26T03:14:46.383Z,320
2017-06-26T03:15:46.584Z,352
2017-06-26T03:16:46.275Z,364
2017-06-26T03:17:46.348Z,384
2017-06-26T03:18:46.336Z,400
2017-06-26T03:19:46.323Z,440
2017-06-26T03:20:46.003Z,492
2017-06-26T03:21:45.994Z,560
2017-06-26T03:22:45.985Z,600
2017-06-26T03:23:45.972Z,632
2017-06-26T03:24:46.263Z,736
2017-06-26T03:25:46.249Z,752
2017-06-26T03:26:46.235Z,852
2017-06-26T03:27:46.231Z,860
2017-06-26T03:28:46.212Z,1016
2017-06-26T03:29:46.195Z,1104
2017-06-26T03:30:46.187Z,1160
2017-06-26T03:31:46.176Z,1180
2017-06-26T03:32:46.159Z,1500
2017-06-26T03:33:46.145Z,1408
2017-06-26T03:34:46.140Z,1444
2017-06-26T03:35:46.125Z,1472
2017-06-26T03:36:46.108Z,1624
2017-06-26T03:37:46.095Z,1668
2017-06-26T03:38:46.104Z,1788
2017-06-26T03:39:46.076Z,1912
2017-06-26T03:40:46.062Z,2080
2017-06-26T03:41:46.051Z,2012
2017-06-26T03:42:46.031Z,1804
2017-06-26T03:43:46.022Z,1840
2017-06-26T03:44:46.013Z,2048
2017-06-26T03:45:45.701Z,2384
2017-06-26T03:46:45.888Z,2660
2017-06-26T03:47:45.978Z,2364
2017-06-26T03:48:45.959Z,2112
2017-06-26T03:49:45.951Z,2216
2017-06-26T03:50:45.936Z,2140
2017-06-26T03:51:46.141Z,2280
2017-06-26T03:52:46.126Z,2276
2017-06-26T03:53:45.903Z,2444
2017-06-26T03:54:45.891Z,2536
2017-06-26T03:55:45.573Z,2452
2017-06-26T03:56:45.562Z,2748
2017-06-26T03:57:45.849Z,2756
2017-06-26T03:58:45.836Z,2672
2017-06-26T03:59:45.827Z,2664
2017-06-26T04:00:45.839Z,2684
2017-06-26T04:01:45.804Z,2980
2017-06-26T04:02:45.797Z,2928
2017-06-26T04:03:45.801Z,2728
2017-06-26T04:04:45.769Z,2728
2017-06-26T04:05:45.752Z,2816
2017-06-26T04:06:45.742Z,2888
2017-06-26T04:07:45.725Z,2956
2017-06-26T04:08:45.712Z,3104
2017-06-26T04:09:45.705Z,3288
2017-06-26T04:10:45.692Z,3180
2017-06-26T04:11:45.676Z,3156
2017-06-26T04:12:45.667Z,3304
2017-06-26T04:13:45.355Z,3540
2017-06-26T04:14:45.646Z,3644
2017-06-26T04:15:45.329Z,3548
2017-06-26T04:16:45.624Z,3380
2017-06-26T04:17:45.601Z,3428
2017-06-26T04:18:45.590Z,3660
2017-06-26T04:19:45.577Z,3712
2017-06-26T04:20:45.570Z,3672
2017-06-26T04:21:45.561Z,3616
2017-06-26T04:22:45.745Z,3704
2017-06-26T04:23:45.534Z,3748
2017-06-26T04:24:45.530Z,3828
2017-06-26T04:25:45.510Z,3812
2017-06-26T04:26:45.498Z,3824
2017-06-26T04:27:45.693Z,3876
2017-06-26T04:28:45.678Z,3904
2017-06-26T04:29:45.459Z,3848
2017-06-26T04:30:45.447Z,3760
2017-06-26T04:31:45.433Z,3844
2017-06-26T04:32:45.419Z,3712
2017-06-26T04:33:45.415Z,3764
2017-06-26T04:34:45.402Z,4084
2017-06-26T04:35:45.388Z,4024
2017-06-26T04:36:45.373Z,3992
2017-06-26T04:37:45.365Z,4092
2017-06-26T04:38:45.350Z,4180
2017-06-26T04:39:45.339Z,4296
2017-06-26T04:40:45.326Z,8100
2017-06-26T04:41:45.313Z,13692
2017-06-26T04:42:45.305Z,15532
2017-06-26T04:43:45.291Z,15444
2017-06-26T04:44:45.280Z,14832
2017-06-26T04:45:45.260Z,14148
2017-06-26T04:46:45.252Z,14336
2017-06-26T04:47:45.243Z,14748
2017-06-26T04:48:45.238Z,15808
2017-06-26T04:49:45.217Z,16052
2017-06-26T04:50:45.208Z,15728
2017-06-26T04:51:45.197Z,15948
2017-06-26T04:52:45.182Z,16384
2017-06-26T04:53:45.169Z,16640
2017-06-26T04:54:45.155Z,17472
2017-06-26T04:55:45.147Z,17408
2017-06-26T04:56:45.135Z,16768
2017-06-26T04:57:45.123Z,17088
2017-06-26T04:58:45.117Z,17632
2017-06-26T04:59:45.101Z,17984
2017-06-26T05:00:45.092Z,18016
2017-06-26T05:01:45.073Z,18304
2017-06-26T05:02:45.065Z,18528
2017-06-26T05:03:45.262Z,19552
2017-06-26T05:04:45.070Z,19712
2017-06-26T05:05:45.033Z,18272
2017-06-26T05:06:45.022Z,18176
2017-06-26T05:07:44.710Z,19104
2017-06-26T05:08:45.200Z,19968
2017-06-26T05:09:45.191Z,21632
2017-06-26T05:10:44.982Z,23968
2017-06-26T05:11:44.972Z,22848
2017-06-26T05:12:44.954Z,20480
2017-06-26T05:13:44.939Z,19776
2017-06-26T05:14:44.934Z,20512
2017-06-26T05:15:44.915Z,23008
2017-06-26T05:16:44.914Z,26272
2017-06-26T05:17:44.897Z,25952
2017-06-26T05:18:44.885Z,23520
2017-06-26T05:19:44.573Z,21952
2017-06-26T05:20:44.865Z,22432
2017-06-26T05:21:44.551Z,23296
2017-06-26T05:22:44.849Z,23168
2017-06-26T05:23:44.826Z,22720
2017-06-26T05:24:44.831Z,23136
2017-06-26T05:25:44.804Z,24768
2017-06-26T05:26:44.500Z,24480
2017-06-26T05:27:44.784Z,24096
2017-06-26T05:28:44.784Z,25888
2017-06-26T05:29:44.465Z,28640
2017-06-26T05:30:44.656Z,30496
2017-06-26T05:31:44.748Z,29216
2017-06-26T05:32:44.742Z,29312
2017-06-26T05:33:44.418Z,33216
2017-06-26T05:34:44.412Z,33568
2017-06-26T05:35:44.605Z,32640
2017-06-26T05:36:44.692Z,34336
2017-06-26T05:37:44.681Z,35072
2017-06-26T05:38:44.674Z,33088
2017-06-26T05:39:44.659Z,37248
2017-06-26T05:40:44.649Z,41760
2017-06-26T05:41:44.638Z,36768
2017-06-26T05:42:44.630Z,35616
2017-06-26T05:43:44.617Z,32768
2017-06-26T05:44:44.607Z,31136
2017-06-26T05:45:44.299Z,35168
2017-06-26T05:46:44.287Z,36160
2017-06-26T05:47:44.276Z,35520
2017-06-26T05:48:44.264Z,36928
2017-06-26T05:49:44.553Z,35360
2017-06-26T05:50:44.243Z,35968
2017-06-26T05:51:44.534Z,42624
2017-06-26T05:52:44.526Z,40928
2017-06-26T05:53:44.519Z,37120
2017-06-26T05:54:44.506Z,45344
2017-06-26T05:55:44.499Z,51296
2017-06-26T05:56:44.491Z,50368
2017-06-26T05:57:44.481Z,50624
2017-06-26T05:58:44.165Z,42176
2017-06-26T05:59:44.157Z,41376
2017-06-26T06:00:44.455Z,47200
2017-06-26T06:01:44.442Z,52512
2017-06-26T06:02:44.432Z,50240
2017-06-26T06:03:44.417Z,47872
2017-06-26T06:04:44.415Z,50208
2017-06-26T06:05:44.407Z,52000
2017-06-26T06:06:44.101Z,50976
2017-06-26T06:07:44.391Z,48896
2017-06-26T06:08:44.375Z,45312
2017-06-26T06:09:44.365Z,42848
2017-06-26T06:10:44.357Z,44064
2017-06-26T06:11:44.039Z,44192
2017-06-26T06:12:44.335Z,45216
2017-06-26T06:13:44.321Z,46848
2017-06-26T06:14:44.319Z,45568
2017-06-26T06:15:44.302Z,44448
2017-06-26T06:16:44.298Z,51584
2017-06-26T06:17:44.290Z,55584
2017-06-26T06:18:44.277Z,51520
2017-06-26T06:19:43.967Z,50080
2017-06-26T06:20:44.260Z,46304
2017-06-26T06:21:44.249Z,45088
2017-06-26T06:22:44.245Z,45312
2017-06-26T06:23:44.235Z,46400
2017-06-26T06:24:44.217Z,56160
2017-06-26T06:25:44.216Z,57856
2017-06-26T06:26:44.201Z,53472
2017-06-26T06:27:44.195Z,52800
2017-06-26T06:28:44.180Z,48800
2017-06-26T06:29:44.172Z,54176
2017-06-26T06:30:44.158Z,57952
2017-06-26T06:31:43.852Z,56992
2017-06-26T06:32:44.141Z,60160
2017-06-26T06:33:44.137Z,59040
2017-06-26T06:34:44.124Z,56800
2017-06-26T06:35:43.813Z,50432
2017-06-26T06:36:44.104Z,51552
2017-06-26T06:37:44.093Z,62240
2017-06-26T06:38:44.085Z,65280
2017-06-26T06:39:44.077Z,65248
2017-06-26T06:40:44.069Z,69376
2017-06-26T06:41:43.751Z,84224
2017-06-26T06:42:44.050Z,83136
2017-06-26T06:43:44.039Z,48736
2017-06-26T06:44:43.427Z,29312
2017-06-26T06:45:44.017Z,27936
2017-06-26T06:46:44.033Z,31296
2017-06-26T06:47:44.002Z,35232
2017-06-26T06:48:43.990Z,37632
2017-06-26T06:49:43.981Z,41632
2017-06-26T06:50:43.999Z,54080
2017-06-26T06:51:43.659Z,59648
2017-06-26T06:52:43.653Z,57088
2017-06-26T06:53:43.639Z,79328
2017-06-26T06:54:43.939Z,82208
2017-06-26T06:55:43.941Z,71456
2017-06-26T06:56:43.917Z,71008
2017-06-26T06:57:43.908Z,70176
2017-06-26T06:58:43.894Z,73568
2017-06-26T06:59:43.885Z,72032
2017-06-26T07:00:43.881Z,62688
2017-06-26T07:01:43.870Z,75136
2017-06-26T07:02:43.881Z,83520
2017-06-26T07:03:43.246Z,69312
2017-06-26T07:04:43.839Z,78528
2017-06-26T07:05:43.858Z,91488
2017-06-26T07:06:43.819Z,80800
2017-06-26T07:07:43.815Z,73536
2017-06-26T07:08:43.809Z,73664
2017-06-26T07:09:43.798Z,78784
2017-06-26T07:10:43.786Z,92288
2017-06-26T07:11:43.779Z,93728
2017-06-26T07:12:43.776Z,86112
2017-06-26T07:13:43.761Z,74560
2017-06-26T07:14:43.752Z,71104
2017-06-26T07:15:43.743Z,79680
2017-06-26T07:16:43.735Z,81504
2017-06-26T07:17:43.725Z,78976
2017-06-26T07:18:43.724Z,81568
2017-06-26T07:19:43.718Z,83168
2017-06-26T07:20:43.402Z,83488
2017-06-26T07:21:43.694Z,90144
2017-06-26T07:22:43.685Z,94400
2017-06-26T07:23:43.680Z,87008
2017-06-26T07:24:43.368Z,81504
2017-06-26T07:25:43.657Z,97984
2017-06-26T07:26:43.652Z,106240
2017-06-26T07:27:43.645Z,75296
2017-06-26T07:28:43.633Z,41856
2017-06-26T07:29:43.630Z,41728
2017-06-26T07:30:43.614Z,67168
2017-06-26T07:31:43.605Z,95872
2017-06-26T07:32:43.600Z,121088
2017-06-26T07:33:43.289Z,120416
2017-06-26T07:34:43.584Z,88032
2017-06-26T07:35:43.576Z,69472
2017-06-26T07:36:43.567Z,77664
2017-06-26T07:37:43.557Z,81504
2017-06-26T07:38:43.550Z,86688
2017-06-26T07:39:43.240Z,91776
2017-06-26T07:40:43.537Z,89376
2017-06-26T07:41:43.530Z,82400
2017-06-26T07:42:43.517Z,81472
2017-06-26T07:43:43.514Z,77632
2017-06-26T07:44:43.500Z,82752
2017-06-26T07:45:43.500Z,99456
2017-06-26T07:46:43.490Z,99392
2017-06-26T07:47:43.185Z,88288
2017-06-26T07:48:43.179Z,86176
2017-06-26T07:49:43.472Z,89024
2017-06-26T07:50:43.463Z,90432
2017-06-26T07:51:43.456Z,95968
2017-06-26T07:52:43.447Z,95328
2017-06-26T07:53:43.446Z,83008
2017-06-26T07:54:43.433Z,80608
2017-06-26T07:55:43.431Z,83264
2017-06-26T07:56:43.424Z,79424
2017-06-26T07:57:43.415Z,73248
2017-06-26T07:58:43.409Z,76608
2017-06-26T07:59:43.403Z,89664
2017-06-26T08:00:43.396Z,87072
2017-06-26T08:01:43.390Z,73856
2017-06-26T08:02:43.383Z,79200
2017-06-26T08:03:43.402Z,93440
2017-06-26T08:04:43.381Z,101184
2017-06-26T08:05:43.368Z,107104
2017-06-26T08:06:43.364Z,114080
2017-06-26T08:07:43.357Z,113280
2017-06-26T08:08:43.351Z,102208
2017-06-26T08:09:43.342Z,97120
2017-06-26T08:10:43.337Z,97376
2017-06-26T08:11:43.332Z,89248
2017-06-26T08:12:43.321Z,84864
2017-06-26T08:13:43.033Z,90112
2017-06-26T08:14:43.006Z,94944
2017-06-26T08:15:43.299Z,96064
2017-06-26T08:16:43.303Z,102976
2017-06-26T08:17:43.007Z,114624
2017-06-26T08:18:43.286Z,115136
2017-06-26T08:19:43.281Z,100992
2017-06-26T08:20:42.970Z,99616
2017-06-26T08:21:43.269Z,99200
2017-06-26T08:22:42.956Z,81568
2017-06-26T08:23:42.948Z,70336
2017-06-26T08:24:42.937Z,77984
2017-06-26T08:25:43.239Z,90336
2017-06-26T08:26:43.229Z,96448
2017-06-26T08:27:43.226Z,88192
2017-06-26T08:28:43.217Z,89408
2017-06-26T08:29:43.214Z,100160
2017-06-26T08:30:43.207Z,96608
2017-06-26T08:31:43.198Z,98944
2017-06-26T08:32:43.193Z,107264
2017-06-26T08:33:43.207Z,112416
2017-06-26T08:34:43.184Z,106432
2017-06-26T08:35:43.177Z,96608
2017-06-26T08:36:43.166Z,87072
2017-06-26T08:37:43.168Z,93760
2017-06-26T08:38:43.154Z,103616
2017-06-26T08:39:43.156Z,104416
2017-06-26T08:40:43.147Z,98560
2017-06-26T08:41:43.145Z,108352
2017-06-26T08:42:43.132Z,116288
2017-06-26T08:43:43.127Z,113792
2017-06-26T08:44:43.123Z,106496
2017-06-26T08:45:43.115Z,100096
2017-06-26T08:46:43.110Z,108704
2017-06-26T08:47:43.106Z,97728
2017-06-26T08:48:43.095Z,86528
2017-06-26T08:49:43.088Z,94048
2017-06-26T08:50:43.083Z,110400
2017-06-26T08:51:43.085Z,126528
2017-06-26T08:52:43.069Z,124960
2017-06-26T08:53:43.075Z,104864
2017-06-26T08:54:43.060Z,73472
2017-06-26T08:55:43.054Z,53248
2017-06-26T08:56:43.046Z,49504
2017-06-26T08:57:43.042Z,60992
2017-06-26T08:58:43.070Z,85920
2017-06-26T08:59:43.030Z,106848
2017-06-26T09:00:43.033Z,125824
2017-06-26T09:01:43.018Z,125632
2017-06-26T09:02:43.011Z,122656
2017-06-26T09:03:43.012Z,111936
2017-06-26T09:04:43.001Z,106432
2017-06-26T09:05:42.993Z,124448
2017-06-26T09:06:42.992Z,109440
2017-06-26T09:07:42.988Z,98208
2017-06-26T09:08:42.984Z,98272
2017-06-26T09:09:42.975Z,101408
2017-06-26T09:10:42.976Z,105952
2017-06-26T09:11:42.998Z,103296
2017-06-26T09:12:42.968Z,94464
2017-06-26T09:13:42.960Z,94816
2017-06-26T09:14:42.954Z,94592
2017-06-26T09:15:42.945Z,90912
2017-06-26T09:16:42.944Z,97632
2017-06-26T09:17:42.634Z,92736
2017-06-26T09:18:42.929Z,103968
2017-06-26T09:19:42.932Z,104640
2017-06-26T09:20:42.923Z,92352
2017-06-26T09:21:42.915Z,90432
2017-06-26T09:22:42.910Z,97664
2017-06-26T09:23:42.604Z,99296
2017-06-26T09:24:42.902Z,92416
2017-06-26T09:25:42.895Z,102912
2017-06-26T09:26:42.888Z,108384
2017-06-26T09:27:42.883Z,102560
2017-06-26T09:28:42.877Z,95296
2017-06-26T09:29:42.870Z,84416
2017-06-26T09:30:42.868Z,86688
2017-06-26T09:31:42.864Z,95712
2017-06-26T09:32:42.854Z,99200
2017-06-26T09:33:42.856Z,101472
2017-06-26T09:34:42.561Z,122016
2017-06-26T09:35:42.844Z,131776
2017-06-26T09:36:42.840Z,152896
2017-06-26T09:37:42.529Z,152192
2017-06-26T09:38:42.523Z,148224
2017-06-26T09:39:42.521Z,151456
2017-06-26T09:40:42.513Z,137536
2017-06-26T09:41:42.808Z,137920
2017-06-26T09:42:42.798Z,135104
2017-06-26T09:43:42.192Z,132960
2017-06-26T09:44:42.192Z,124096
2017-06-26T09:45:42.492Z,111808
2017-06-26T09:46:42.479Z,105376
2017-06-26T09:47:42.780Z,101952
2017-06-26T09:48:42.466Z,100128
2017-06-26T09:49:42.160Z,96480
2017-06-26T09:50:42.156Z,96032
2017-06-26T09:51:42.751Z,95232
2017-06-26T09:52:42.754Z,96576
2017-06-26T09:53:42.743Z,95552
2017-06-26T09:54:42.743Z,94816
2017-06-26T09:55:42.127Z,93984
2017-06-26T09:56:42.729Z,95872
2017-06-26T09:57:42.724Z,98208
2017-06-26T09:58:42.721Z,99968
2017-06-26T09:59:42.710Z,102592
2017-06-26T10:00:42.101Z,103040
2017-06-26T10:01:42.706Z,100928
2017-06-26T10:02:42.699Z,100128
2017-06-26T10:03:42.693Z,98752
2017-06-26T10:04:42.693Z,97632
2017-06-26T10:05:42.683Z,95328
2017-06-26T10:06:42.676Z,93792
2017-06-26T10:07:42.672Z,97792
2017-06-26T10:08:42.665Z,101760
2017-06-26T10:09:42.664Z,105632
2017-06-26T10:10:42.655Z,109120
2017-06-26T10:11:42.655Z,110368
2017-06-26T10:12:42.650Z,112096
2017-06-26T10:13:42.642Z,115328
2017-06-26T10:14:42.638Z,115360
2017-06-26T10:15:42.633Z,116000
2017-06-26T10:16:42.622Z,115072
2017-06-26T10:17:42.620Z,117376
2017-06-26T10:18:42.617Z,115904
2017-06-26T10:19:42.614Z,115520
2017-06-26T10:20:42.601Z,116576
2017-06-26T10:21:42.600Z,118016
2017-06-26T10:22:42.297Z,121600
2017-06-26T10:23:42.588Z,122272
2017-06-26T10:24:42.580Z,129440
2017-06-26T10:25:42.575Z,130144
2017-06-26T10:26:42.571Z,136928
2017-06-26T10:27:42.570Z,128704
2017-06-26T10:28:42.560Z,119968
2017-06-26T10:29:42.558Z,117088
2017-06-26T10:30:42.556Z,123328
2017-06-26T10:31:42.552Z,129248
2017-06-26T10:32:42.550Z,130752
2017-06-26T10:33:42.240Z,129792
2017-06-26T10:34:42.551Z,128832
2017-06-26T10:35:42.534Z,132160
2017-06-26T10:36:42.531Z,134720
2017-06-26T10:37:42.524Z,134752
2017-06-26T10:38:42.522Z,130432
2017-06-26T10:39:42.514Z,129472
2017-06-26T10:40:42.514Z,129024
2017-06-26T10:41:42.507Z,130656
2017-06-26T10:42:42.504Z,130848
2017-06-26T10:43:42.497Z,129088
2017-06-26T10:44:42.195Z,128768
2017-06-26T10:45:42.494Z,128928
2017-06-26T10:46:42.485Z,130368
2017-06-26T10:47:42.480Z,127232
2017-06-26T10:48:42.482Z,125344
2017-06-26T10:49:42.479Z,123840
2017-06-26T10:50:42.476Z,123616
2017-06-26T10:51:42.167Z,127392
2017-06-26T10:52:42.166Z,125024
2017-06-26T10:53:42.458Z,120768
2017-06-26T10:54:42.456Z,119520
2017-06-26T10:55:42.455Z,114560
2017-06-26T10:56:42.451Z,117280
2017-06-26T10:57:42.465Z,117632
2017-06-26T10:58:42.138Z,120832
2017-06-26T10:59:42.435Z,122752
2017-06-26T11:00:42.432Z,120640
2017-06-26T11:01:42.428Z,119360
2017-06-26T11:02:42.425Z,117600
2017-06-26T11:03:42.115Z,117344
2017-06-26T11:04:42.434Z,117152
2017-06-26T11:05:42.408Z,115264
2017-06-26T11:06:42.402Z,117216
2017-06-26T11:07:42.401Z,118496
2017-06-26T11:08:42.090Z,115424
2017-06-26T11:09:42.388Z,110784
2017-06-26T11:10:42.083Z,107200
2017-06-26T11:11:42.380Z,107584
2017-06-26T11:12:42.373Z,104608
2017-06-26T11:13:42.069Z,103936
2017-06-26T11:14:42.366Z,103360
2017-06-26T11:15:42.369Z,107744
2017-06-26T11:16:42.355Z,109056
2017-06-26T11:17:42.352Z,110688
2017-06-26T11:18:42.341Z,117056
2017-06-26T11:19:42.339Z,117312
2017-06-26T11:20:42.338Z,117920
2017-06-26T11:21:42.331Z,116096
2017-06-26T11:22:42.325Z,110848
2017-06-26T11:23:42.320Z,105664
2017-06-26T11:24:42.317Z,103104
2017-06-26T11:25:42.307Z,102368
2017-06-26T11:26:42.009Z,103840
2017-06-26T11:27:42.005Z,104000
2017-06-26T11:28:42.299Z,104480
2017-06-26T11:29:42.301Z,105152
2017-06-26T11:30:42.297Z,106464
2017-06-26T11:31:42.295Z,106400
2017-06-26T11:32:42.291Z,106688
2017-06-26T11:33:42.294Z,107104
2017-06-26T11:34:41.985Z,108000
2017-06-26T11:35:42.282Z,110112
2017-06-26T11:36:42.283Z,108768
2017-06-26T11:37:42.277Z,108096
2017-06-26T11:38:42.295Z,109376
2017-06-26T11:39:42.272Z,106944
2017-06-26T11:40:42.267Z,108896
2017-06-26T11:41:41.968Z,110336
2017-06-26T11:42:42.258Z,111328
2017-06-26T11:43:42.256Z,110752
2017-06-26T11:44:41.957Z,108256
2017-06-26T11:45:42.254Z,107200
2017-06-26T11:46:42.248Z,116000
2017-06-26T11:47:42.251Z,121440
2017-06-26T11:48:42.237Z,137792
2017-06-26T11:49:42.244Z,168160
2017-06-26T11:50:41.937Z,181312
2017-06-26T11:51:41.922Z,169184
2017-06-26T11:52:41.918Z,163008
2017-06-26T11:53:41.918Z,155328
2017-06-26T11:54:42.208Z,145248
2017-06-26T11:55:42.206Z,139968
2017-06-26T11:56:42.200Z,129568
2017-06-26T11:57:41.602Z,117056
2017-06-26T11:58:42.201Z,110976
2017-06-26T11:59:42.190Z,105632
2017-06-26T12:00:41.892Z,102880
2017-06-26T12:01:41.892Z,110112
2017-06-26T12:02:42.187Z,116896
2017-06-26T12:03:42.178Z,124000
2017-06-26T12:04:42.173Z,61760
2017-06-26T12:05:42.175Z,136992
2017-06-26T12:06:42.173Z,133696
2017-06-26T12:07:42.161Z,133952
2017-06-26T12:08:42.165Z,122240
2017-06-26T12:09:42.154Z,32320
2017-06-26T12:10:42.153Z,34656
2017-06-26T12:11:42.153Z,32736
2017-06-26T12:12:41.855Z,178240
2017-06-26T12:13:42.142Z,28320
2017-06-26T12:14:42.142Z,128288
2017-06-26T12:15:42.139Z,138496
2017-06-26T12:16:42.133Z,145856
2017-06-26T12:17:42.129Z,139584
2017-06-26T12:18:42.128Z,134208
2017-06-26T12:19:42.128Z,132288
2017-06-26T12:20:42.127Z,129472
2017-06-26T12:21:42.117Z,121056
2017-06-26T12:22:42.115Z,119168
2017-06-26T12:23:42.112Z,116992
2017-06-26T12:24:41.809Z,77312
2017-06-26T12:25:42.111Z,116288
2017-06-26T12:26:42.110Z,114944
2017-06-26T12:27:41.804Z,116224
2017-06-26T12:28:42.100Z,20032
2017-06-26T12:29:42.096Z,23456
2017-06-26T12:30:42.095Z,68832
2017-06-26T12:31:42.090Z,41824
2017-06-26T12:32:42.084Z,138912
2017-06-26T12:33:42.080Z,60288
2017-06-26T12:34:41.777Z,26816
2017-06-26T12:35:42.082Z,22432
2017-06-26T12:36:42.072Z,22272
2017-06-26T12:37:42.072Z,21856
2017-06-26T12:38:42.090Z,24672
2017-06-26T12:39:42.065Z,25408
2017-06-26T12:40:42.059Z,26688
2017-06-26T12:41:42.056Z,34752
2017-06-26T12:42:41.759Z,35776
2017-06-26T12:43:42.078Z,29728
2017-06-26T12:44:42.044Z,27232
2017-06-26T12:45:42.038Z,71584
2017-06-26T12:46:42.045Z,132832
2017-06-26T12:47:41.431Z,131040
2017-06-26T12:48:41.729Z,129088
2017-06-26T12:49:42.027Z,124832
2017-06-26T12:50:42.023Z,128256
2017-06-26T12:51:41.717Z,134560
2017-06-26T12:52:42.012Z,30784
2017-06-26T12:53:41.708Z,42400
2017-06-26T12:54:42.007Z,46016
2017-06-26T12:55:42.005Z,125600
2017-06-26T12:56:41.998Z,133184
2017-06-26T12:57:41.995Z,121984
2017-06-26T12:58:41.997Z,124992
2017-06-26T12:59:41.989Z,133536
2017-06-26T13:00:41.689Z,131008
2017-06-26T13:01:41.986Z,129664
2017-06-26T13:02:41.980Z,131040
2017-06-26T13:03:41.978Z,132640
2017-06-26T13:04:41.971Z,22656
2017-06-26T13:05:41.972Z,21504
2017-06-26T13:06:41.967Z,26848
2017-06-26T13:07:41.969Z,28032
2017-06-26T13:08:41.983Z,36192
2017-06-26T13:09:41.959Z,43712
2017-06-26T13:10:41.952Z,81952
2017-06-26T13:11:41.959Z,51584
2017-06-26T13:12:41.948Z,115904